Time;durP1;ratioP1;P1;durP2;ratioP2;P2;SDS_P1;SDS_P2;PMS_P1;PMS_P2;Temp;Humidity;BMP_temperature;BMP_pressure;BME280_temperature;BME280_humidity;BME280_pressure;Samples;Min_cycle;Max_cycle;Signal;HPM_P1;HPM_P2
2023/06/08 00:03:39;;;;;;;1.80;1.40;;;;;;;10.81;79.51;101343.09;10318469;28;20034;-88
2023/06/08 00:08:43;;;;;;;2.03;1.17;;;;;;;10.85;79.87;101352.44;10307640;28;20054;-88
2023/06/08 00:13:45;;;;;;;2.80;1.10;;;;;;;10.76;79.46;101345.81;10323306;28;20512;-88
2023/06/08 00:18:49;;;;;;;2.38;1.05;;;;;;;10.72;80.07;101355.66;10301155;28;20042;-87
2023/06/08 00:23:52;;;;;;;1.33;1.10;;;;;;;10.72;79.96;101360.31;10293922;28;20039;-86
2023/06/08 00:28:54;;;;;;;5.32;1.60;;;;;;;10.75;80.55;101351.56;10308616;28;20042;-89
2023/06/08 00:33:56;;;;;;;3.22;1.73;;;;;;;10.69;81.03;101358.94;10284853;28;20068;-87
2023/06/08 00:38:58;;;;;;;2.92;1.60;;;;;;;10.65;80.78;101357.81;10294583;28;20081;-86
2023/06/08 00:44:04;;;;;;;2.13;1.63;;;;;;;10.61;80.83;101351.22;10278765;28;20058;-87
2023/06/08 00:49:15;;;;;;;4.90;1.75;;;;;;;10.58;81.64;101346.22;10286983;28;20624;-86
2023/06/08 00:54:17;;;;;;;2.97;1.35;;;;;;;10.50;81.48;101347.56;10284817;28;20051;-86
2023/06/08 00:59:20;;;;;;;3.50;1.63;;;;;;;10.46;81.99;101346.44;10316181;28;20042;-86
2023/06/08 01:04:23;;;;;;;2.17;1.25;;;;;;;10.48;82.01;101357.97;10299356;28;20043;-87
2023/06/08 01:09:40;;;;;;;2.03;1.20;;;;;;;10.48;82.96;101347.00;10290484;28;20552;-86
2023/06/08 01:15:06;;;;;;;2.28;1.10;;;;;;;10.47;82.12;101350.84;10284142;28;20034;-86
2023/06/08 01:20:12;;;;;;;1.40;1.20;;;;;;;10.43;82.21;101346.97;10296310;28;20053;-86
2023/06/08 01:25:17;;;;;;;2.33;1.33;;;;;;;10.49;82.70;101337.66;10302518;28;20042;-86
2023/06/08 01:30:20;;;;;;;2.08;1.27;;;;;;;10.52;82.52;101341.81;10290203;28;20046;-87
2023/06/08 01:35:22;;;;;;;3.70;1.52;;;;;;;10.51;82.70;101351.94;10288375;28;20409;-86
2023/06/08 01:40:35;;;;;;;2.17;1.30;;;;;;;10.58;82.39;101336.06;10296020;28;20042;-87
2023/06/08 01:45:41;;;;;;;1.75;1.25;;;;;;;10.58;81.45;101338.00;10311206;28;20062;-87
2023/06/08 01:50:43;;;;;;;1.77;1.25;;;;;;;10.59;81.83;101339.66;10281833;28;20039;-87
2023/06/08 01:55:49;;;;;;;1.58;1.30;;;;;;;10.85;80.18;101340.66;10287775;28;20086;-86
2023/06/08 02:00:52;;;;;;;3.55;1.48;;;;;;;11.05;79.16;101340.75;10255904;28;20046;-87
2023/06/08 02:05:54;;;;;;;1.60;1.10;;;;;;;11.34;77.95;101340.34;10276602;28;20042;-87
2023/06/08 02:10:57;;;;;;;1.88;1.20;;;;;;;11.53;76.45;101335.19;10290422;28;20062;-87
2023/06/08 02:15:59;;;;;;;1.88;1.30;;;;;;;11.62;75.68;101339.84;10311874;28;20533;-87
2023/06/08 02:21:05;;;;;;;3.75;1.52;;;;;;;11.55;76.13;101342.03;10298693;28;20058;-88
2023/06/08 02:26:07;;;;;;;3.05;1.35;;;;;;;11.60;75.25;101343.97;10282743;28;20050;-87
2023/06/08 02:31:11;;;;;;;3.33;1.40;;;;;;;11.45;75.24;101333.75;10300392;28;20058;-87
2023/06/08 02:36:13;;;;;;;2.33;1.30;;;;;;;11.44;75.35;101340.34;10286084;28;20034;-91
2023/06/08 02:41:17;;;;;;;1.70;1.42;;;;;;;11.54;74.21;101320.34;10281732;28;20055;-91
2023/06/08 02:46:19;;;;;;;2.63;1.25;;;;;;;11.61;74.09;101321.72;10300630;28;20051;-87
2023/06/08 02:51:27;;;;;;;2.40;1.30;;;;;;;11.66;74.17;101318.16;10279336;28;20039;-87
2023/06/08 02:56:29;;;;;;;2.45;1.50;;;;;;;11.74;73.43;101321.19;10304455;28;20505;-87
2023/06/08 03:01:33;;;;;;;2.40;1.23;;;;;;;11.63;73.04;101311.31;10270700;28;20039;-88
2023/06/08 03:06:44;;;;;;;3.25;1.70;;;;;;;11.78;72.65;101311.31;10293470;28;20047;-89
2023/06/08 03:11:50;;;;;;;1.38;1.08;;;;;;;11.78;71.69;101315.97;10268160;28;20043;-88
2023/06/08 03:16:57;;;;;;;3.97;1.67;;;;;;;11.75;71.93;101317.34;10288349;28;20042;-88
2023/06/08 03:22:02;;;;;;;2.90;1.25;;;;;;;12.06;71.15;101314.66;10274896;28;20560;-88
2023/06/08 03:27:10;;;;;;;2.42;1.45;;;;;;;12.15;71.21;101315.78;10275919;28;20544;-87
2023/06/08 03:32:13;;;;;;;1.60;1.20;;;;;;;12.41;69.81;101313.84;10305831;28;20559;-86
2023/06/08 03:37:16;;;;;;;2.92;1.25;;;;;;;12.53;68.42;101319.88;10292955;28;20043;-87
2023/06/08 03:42:19;;;;;;;2.20;1.30;;;;;;;12.80;66.97;101325.03;10268307;28;20548;-88
2023/06/08 03:47:26;;;;;;;2.63;1.30;;;;;;;13.08;66.53;101309.00;10294437;28;20514;-88
2023/06/08 03:52:30;;;;;;;3.35;1.80;;;;;;;13.50;64.43;101311.28;10287506;28;20051;-87
2023/06/08 03:57:32;;;;;;;2.60;1.48;;;;;;;13.78;63.20;101307.00;10296271;28;20042;-87
2023/06/08 04:02:35;;;;;;;4.32;2.15;;;;;;;13.91;62.82;101308.28;10289252;28;20034;-87
2023/06/08 04:07:38;;;;;;;3.17;2.00;;;;;;;14.14;61.63;101308.38;10307154;28;20046;-87
2023/06/08 04:12:40;;;;;;;2.33;1.60;;;;;;;14.18;60.42;101300.31;10298028;28;20039;-88
2023/06/08 04:17:43;;;;;;;3.00;2.17;;;;;;;14.41;59.72;101302.34;10287188;28;20046;-88
2023/06/08 04:22:48;;;;;;;3.08;1.88;;;;;;;14.65;58.76;101305.16;10291827;28;20034;-86
2023/06/08 04:27:52;;;;;;;4.45;1.40;;;;;;;14.98;57.72;101305.38;10268893;28;20035;-86
2023/06/08 04:32:57;;;;;;;1.50;1.30;;;;;;;15.63;54.97;101303.72;10295415;28;20042;-85
2023/06/08 04:38:01;;;;;;;2.95;1.02;;;;;;;16.52;52.12;101291.72;10303456;28;20050;-87
2023/06/08 04:43:03;;;;;;;4.47;0.88;;;;;;;16.85;50.47;101293.34;10270684;28;20050;-87
2023/06/08 04:48:09;;;;;;;1.52;1.02;;;;;;;16.87;48.48;101285.53;10308006;28;20506;-88
2023/06/08 04:53:14;;;;;;;2.05;0.68;;;;;;;17.30;47.37;101287.97;10314763;28;20141;-90
2023/06/08 04:58:17;;;;;;;0.80;0.80;;;;;;;17.48;46.27;101287.00;10291042;28;20055;-82
2023/06/08 05:03:23;;;;;;;0.93;0.68;;;;;;;18.35;44.64;101291.31;10303617;28;20046;-83
2023/06/08 05:08:26;;;;;;;1.77;0.82;;;;;;;19.14;42.52;101290.56;10294432;28;20059;-76
2023/06/08 05:13:28;;;;;;;1.52;0.60;;;;;;;19.24;42.00;101289.41;10305778;28;20047;-78
2023/06/08 05:18:30;;;;;;;1.60;0.77;;;;;;;19.54;41.63;101277.41;10320583;28;20043;-95
2023/06/08 05:23:33;;;;;;;1.20;0.70;;;;;;;19.97;40.54;101282.16;10325809;28;20042;-89
2023/06/08 05:28:35;;;;;;;1.10;0.80;;;;;;;20.03;40.17;101278.06;10313707;28;20047;-93
2023/06/08 05:33:37;;;;;;;0.95;0.70;;;;;;;20.28;39.42;101272.75;10297543;28;20046;-86
2023/06/08 05:38:39;;;;;;;1.20;0.80;;;;;;;20.40;39.28;101272.91;10319570;28;20058;-86
2023/06/08 05:43:42;;;;;;;2.55;0.90;;;;;;;20.94;38.32;101260.09;10304147;28;20050;-83
2023/06/08 05:48:44;;;;;;;1.45;0.75;;;;;;;21.42;37.05;101260.81;10310587;28;20509;-85
2023/06/08 05:53:47;;;;;;;1.67;1.00;;;;;;;21.48;37.52;101265.03;10311307;28;20046;-84
2023/06/08 05:58:50;;;;;;;1.73;0.70;;;;;;;21.94;36.70;101256.44;10323361;28;20425;-84
2023/06/08 06:03:52;;;;;;;1.08;1.00;;;;;;;21.96;37.14;101254.13;10322466;28;20510;-85
2023/06/08 06:08:54;;;;;;;3.40;0.70;;;;;;;21.92;37.14;101250.38;10321729;28;20513;-85
2023/06/08 06:14:00;;;;;;;3.60;0.80;;;;;;;22.01;36.02;101249.47;10280895;28;20039;-85
2023/06/08 06:19:02;;;;;;;;;;;;;;;22.01;36.32;101250.28;10323008;28;20043;-84
2023/06/08 06:24:05;;;;;;;2.28;0.60;;;;;;;21.91;35.84;101247.94;10323189;28;19929;-84
2023/06/08 06:29:07;;;;;;;2.38;0.77;;;;;;;22.20;35.54;101241.41;10321996;28;20413;-84
2023/06/08 06:34:09;;;;;;;2.75;0.98;;;;;;;22.20;35.94;101241.41;10268619;29;20434;-84
2023/06/08 06:39:12;;;;;;;2.78;0.70;;;;;;;22.31;35.80;101233.41;10286968;28;20061;-85
2023/06/08 06:44:15;;;;;;;3.00;0.77;;;;;;;22.67;35.05;101232.63;10326070;28;20047;-84
2023/06/08 06:49:17;;;;;;;1.15;0.70;;;;;;;22.54;34.96;101229.81;10279516;28;20055;-84
2023/06/08 06:54:21;;;;;;;0.88;0.60;;;;;;;22.23;34.14;101226.75;10289487;29;20062;-85
2023/06/08 06:59:23;;;;;;;1.35;0.70;;;;;;;22.24;34.44;101223.63;10289568;29;20050;-85
2023/06/08 07:04:25;;;;;;;0.70;0.70;;;;;;;22.84;33.85;101221.25;10290073;29;20043;-85
2023/06/08 07:09:28;;;;;;;1.73;0.70;;;;;;;23.04;33.43;101220.31;10295197;28;20054;-85
2023/06/08 07:14:31;;;;;;;1.40;0.65;;;;;;;23.19;33.23;101215.16;10289570;29;20051;-85
2023/06/08 07:19:33;;;;;;;0.85;0.70;;;;;;;23.08;33.90;101228.81;10291230;28;20055;-86
2023/06/08 07:24:35;;;;;;;1.95;0.60;;;;;;;23.07;33.81;101225.19;10309075;28;20039;-85
2023/06/08 07:29:37;;;;;;;2.83;0.50;;;;;;;23.27;32.53;101222.63;10306063;28;20457;-82
2023/06/08 07:34:41;;;;;;;0.57;0.45;;;;;;;23.50;33.19;101206.91;10303125;28;20047;-79
2023/06/08 07:39:43;;;;;;;1.77;0.50;;;;;;;23.00;32.90;101205.38;10313389;28;20050;-72
2023/06/08 07:44:45;;;;;;;2.63;0.60;;;;;;;22.20;34.61;101208.66;10323136;28;20517;-75
2023/06/08 07:49:47;;;;;;;1.83;0.68;;;;;;;22.06;34.64;101199.00;10301503;28;20057;-72
2023/06/08 07:54:50;;;;;;;1.80;0.60;;;;;;;21.16;35.86;101200.34;10301747;28;20498;-73
2023/06/08 07:59:52;;;;;;;2.47;0.80;;;;;;;21.59;35.66;101200.06;10306653;28;20054;-70
2023/06/08 08:04:55;;;;;;;2.78;0.80;;;;;;;22.88;34.27;101182.19;10325378;28;20421;-71
2023/06/08 08:09:57;;;;;;;0.80;0.60;;;;;;;23.93;32.15;101177.31;10271731;28;20414;-72
2023/06/08 08:15:02;;;;;;;0.90;0.57;;;;;;;24.07;32.01;101177.72;10298412;28;20514;-73
2023/06/08 08:20:05;;;;;;;2.05;0.50;;;;;;;24.54;31.11;101191.00;10319310;28;20062;-73
2023/06/08 08:25:08;;;;;;;0.60;0.60;;;;;;;24.28;31.18;101178.28;10307699;28;20389;-73
2023/06/08 08:30:11;;;;;;;1.83;0.55;;;;;;;24.19;30.79;101174.03;10312945;28;20064;-72
2023/06/08 08:35:14;;;;;;;1.15;0.52;;;;;;;24.29;30.17;101162.28;10314611;28;20631;-72
2023/06/08 08:40:16;;;;;;;0.88;0.60;;;;;;;23.70;30.69;101154.69;10289137;28;20046;-71
2023/06/08 08:45:21;;;;;;;2.28;0.52;;;;;;;23.84;30.51;101145.84;10321530;28;20046;-71
2023/06/08 08:50:25;;;;;;;2.47;0.70;;;;;;;23.99;31.35;101142.28;10281625;28;20038;-72
2023/06/08 08:55:27;;;;;;;1.77;0.80;;;;;;;24.46;30.51;101133.88;10314033;28;20041;-73
2023/06/08 09:00:31;;;;;;;3.50;0.60;;;;;;;24.28;30.54;101136.19;10296753;28;20055;-77
2023/06/08 09:05:33;;;;;;;1.05;0.73;;;;;;;24.27;30.06;101148.59;10309622;28;20047;-81
2023/06/08 09:10:35;;;;;;;0.50;0.50;;;;;;;24.01;29.98;101142.72;10312588;28;20038;-81
2023/06/08 09:15:39;;;;;;;0.60;0.60;;;;;;;23.40;31.67;101128.97;10323857;28;20561;-81
2023/06/08 09:20:41;;;;;;;0.93;0.60;;;;;;;22.88;31.32;101132.63;10323558;28;20054;-81
2023/06/08 09:25:46;;;;;;;1.45;0.68;;;;;;;22.75;31.44;101128.22;10300685;28;20054;-82
2023/06/08 09:30:51;;;;;;;1.30;0.63;;;;;;;22.04;32.58;101115.47;10266288;29;20050;-82
2023/06/08 09:35:56;;;;;;;1.77;0.70;;;;;;;21.48;33.61;101119.84;10287199;28;20154;-82
2023/06/08 09:41:22;;;;;;;0.50;0.50;;;;;;;21.33;33.76;101104.53;10323166;28;20035;-82
2023/06/08 09:46:39;;;;;;;1.38;0.80;;;;;;;20.76;35.03;101103.16;10306145;28;20413;-81
2023/06/08 09:51:46;;;;;;;2.33;0.60;;;;;;;20.51;34.92;101093.00;10305540;28;20039;-81
2023/06/08 09:56:55;;;;;;;0.70;0.70;;;;;;;20.75;35.18;101090.38;10277541;28;20479;-85
2023/06/08 10:02:07;;;;;;;2.15;0.90;;;;;;;20.78;34.89;101103.63;10285348;28;20051;-79
2023/06/08 10:07:15;;;;;;;2.20;0.90;;;;;;;20.80;35.51;101094.09;10274815;28;20067;-88
2023/06/08 10:12:17;;;;;;;1.70;1.00;;;;;;;20.68;35.19;101086.50;10283450;28;20035;-89
2023/06/08 10:17:20;;;;;;;1.83;0.82;;;;;;;20.82;36.13;101080.63;10317657;28;20055;-90
2023/06/08 10:22:23;;;;;;;1.73;0.77;;;;;;;20.91;35.96;101078.59;10306984;28;20050;-85
2023/06/08 10:27:29;;;;;;;0.93;0.70;;;;;;;21.10;35.81;101073.34;10321108;28;20051;-86
2023/06/08 10:32:33;;;;;;;0.70;0.50;;;;;;;20.95;37.70;101085.13;10293977;28;20051;-86
2023/06/08 10:37:37;;;;;;;0.65;0.60;;;;;;;20.70;38.12;101081.41;10283490;28;20043;-86
2023/06/08 10:42:55;;;;;;;0.95;0.63;;;;;;;20.30;38.66;101080.94;10319095;28;20077;-90
2023/06/08 10:48:07;;;;;;;1.70;0.73;;;;;;;19.98;38.93;101079.63;10318849;28;20051;-91
2023/06/08 10:53:10;;;;;;;1.58;0.80;;;;;;;19.78;40.07;101076.41;10289960;28;20544;-89
2023/06/08 10:58:16;;;;;;;1.92;0.60;;;;;;;19.53;40.60;101075.28;10322572;28;20043;-90
2023/06/08 11:03:20;;;;;;;1.40;1.02;;;;;;;19.83;40.99;101079.03;10306784;28;20058;-87
2023/06/08 11:08:22;;;;;;;1.35;0.70;;;;;;;19.78;40.89;101081.97;10308858;28;20047;-83
2023/06/08 11:13:24;;;;;;;4.05;1.00;;;;;;;19.53;42.08;101072.50;10321802;28;20046;-84
2023/06/08 11:18:29;;;;;;;1.63;0.80;;;;;;;19.62;42.03;101077.28;10320293;28;20055;-86
2023/06/08 11:23:33;;;;;;;4.40;0.90;;;;;;;19.65;41.27;101073.84;10286086;28;20485;-89
2023/06/08 11:28:35;;;;;;;0.70;0.63;;;;;;;19.47;40.93;101078.59;10293459;28;20058;-90
2023/06/08 11:33:46;;;;;;;1.83;0.82;;;;;;;19.30;41.74;101079.44;10306605;28;20046;-89
2023/06/08 11:38:49;;;;;;;1.58;1.00;;;;;;;19.36;41.94;101069.75;10317376;28;20041;-87
2023/06/08 11:43:51;;;;;;;3.53;0.77;;;;;;;19.20;41.76;101068.63;10290417;28;20055;-89
2023/06/08 11:49:05;;;;;;;2.55;1.20;;;;;;;19.11;42.25;101056.72;10322280;28;20043;-86
2023/06/08 11:54:08;;;;;;;1.13;0.90;;;;;;;19.16;42.46;101043.44;10309137;28;20069;-85
2023/06/08 11:59:10;;;;;;;2.63;1.10;;;;;;;19.23;43.00;101042.94;10326123;28;20050;-85
2023/06/08 12:04:13;;;;;;;1.88;0.77;;;;;;;19.33;42.32;101034.25;10307894;28;20058;-80
2023/06/08 12:09:15;;;;;;;2.58;1.00;;;;;;;19.25;42.23;101023.94;10306724;28;20514;-89
2023/06/08 12:14:18;;;;;;;2.05;1.00;;;;;;;19.25;42.50;101013.63;10319966;28;20049;-88
2023/06/08 12:19:28;;;;;;;1.15;0.93;;;;;;;18.85;42.32;101013.03;10323869;28;20078;-88
2023/06/08 12:24:32;;;;;;;1.55;0.93;;;;;;;18.81;42.47;101009.28;10313787;28;20035;-88
2023/06/08 12:29:36;;;;;;;1.20;1.10;;;;;;;19.01;41.77;100998.63;10324187;28;20051;-88
2023/06/08 12:34:38;;;;;;;3.03;1.13;;;;;;;19.25;41.65;100990.56;10325953;28;20457;-88
2023/06/08 12:39:40;;;;;;;1.10;0.90;;;;;;;19.33;40.47;100988.91;10326964;28;20042;-86
2023/06/08 12:44:43;;;;;;;2.08;1.00;;;;;;;19.40;39.98;100992.81;10326068;28;20536;-86
2023/06/08 12:49:46;;;;;;;0.95;0.70;;;;;;;19.33;40.32;100986.13;10308804;28;20051;-87
2023/06/08 12:54:50;;;;;;;1.88;1.30;;;;;;;19.25;40.24;100996.94;10325522;28;20041;-88
2023/06/08 12:59:52;;;;;;;2.67;0.85;;;;;;;19.11;38.97;100995.53;10322928;28;20051;-87
2023/06/08 13:04:55;;;;;;;0.98;0.88;;;;;;;18.92;38.81;100995.88;10290453;28;20047;-87
2023/06/08 13:10:00;;;;;;;0.60;0.60;;;;;;;18.73;39.25;100998.97;10285535;28;20502;-86
2023/06/08 13:15:04;;;;;;;2.27;1.10;;;;;;;18.62;39.60;100994.88;10324883;28;20145;-88
2023/06/08 13:20:07;;;;;;;2.13;0.80;;;;;;;18.41;39.97;100993.88;10324040;28;20050;-86
2023/06/08 13:25:10;;;;;;;1.50;0.88;;;;;;;18.24;39.71;101001.03;10324574;28;20047;-86
2023/06/08 13:30:12;;;;;;;0.90;0.77;;;;;;;18.10;40.36;101008.69;10307099;28;20062;-87
2023/06/08 13:35:15;;;;;;;2.95;0.70;;;;;;;17.76;41.65;101018.53;10324571;28;20035;-86
2023/06/08 13:40:17;;;;;;;4.50;0.80;;;;;;;17.48;42.75;101012.31;10306970;28;20050;-87
2023/06/08 13:45:20;;;;;;;1.73;0.70;;;;;;;17.13;44.66;101005.72;10323167;28;20047;-86
2023/06/08 13:50:22;;;;;;;2.15;1.00;;;;;;;16.98;45.68;101008.88;10305887;28;20066;-87
2023/06/08 13:55:25;;;;;;;1.05;0.60;;;;;;;16.98;45.21;100996.97;10319113;28;20055;-87
2023/06/08 14:00:29;;;;;;;2.08;0.80;;;;;;;17.14;44.93;100990.72;10306934;28;20039;-83
2023/06/08 14:05:31;;;;;;;1.25;0.98;;;;;;;17.16;44.05;100996.78;10292607;28;20043;-89
2023/06/08 14:10:34;;;;;;;1.20;1.10;;;;;;;17.11;42.57;101008.00;10292020;28;20059;-90
2023/06/08 14:15:36;;;;;;;1.65;0.93;;;;;;;16.84;39.68;101003.44;10294690;28;20706;-79
2023/06/08 14:20:38;;;;;;;2.15;1.05;;;;;;;16.61;39.59;101014.75;10319395;28;20514;-79
2023/06/08 14:25:40;;;;;;;2.72;0.90;;;;;;;16.35;38.34;101007.03;10307828;28;20051;-79
2023/06/08 14:30:43;;;;;;;0.90;0.75;;;;;;;16.10;38.47;100999.25;10298932;28;20038;-77
2023/06/08 14:35:45;;;;;;;1.77;1.00;;;;;;;15.90;38.83;101000.50;10319920;28;20046;-79
2023/06/08 14:40:48;;;;;;;1.48;1.17;;;;;;;15.72;39.10;101005.03;10307368;28;20043;-79
2023/06/08 14:45:50;;;;;;;1.67;1.00;;;;;;;15.67;39.29;100999.59;10269247;28;20513;-80
2023/06/08 14:50:52;;;;;;;2.25;1.15;;;;;;;15.60;39.14;101010.22;10312768;28;20257;-80
2023/06/08 14:55:55;;;;;;;1.38;0.90;;;;;;;15.40;38.57;101008.63;10287615;28;20514;-79
2023/06/08 15:00:57;;;;;;;2.65;0.73;;;;;;;15.36;39.21;101015.91;10325503;28;20043;-79
2023/06/08 15:05:59;;;;;;;2.92;1.20;;;;;;;15.58;39.94;101006.91;10326180;28;20521;-81
2023/06/08 15:11:01;;;;;;;1.40;0.90;;;;;;;15.45;40.65;101000.25;10290120;28;20035;-81
2023/06/08 15:16:03;;;;;;;2.30;0.98;;;;;;;15.42;41.77;101000.03;10316269;28;20070;-80
2023/06/08 15:21:06;;;;;;;0.90;0.80;;;;;;;15.33;42.09;100991.63;10322818;28;20043;-80
2023/06/08 15:26:08;;;;;;;2.75;1.10;;;;;;;15.26;42.99;100980.13;10317576;28;20494;-82
2023/06/08 15:31:12;;;;;;;1.55;1.00;;;;;;;15.16;43.34;100981.16;10301867;28;20067;-84
2023/06/08 15:36:15;;;;;;;4.28;1.17;;;;;;;15.12;43.01;100969.06;10303715;28;20062;-81
2023/06/08 15:41:18;;;;;;;2.67;1.50;;;;;;;15.14;43.50;100963.22;10322002;28;20057;-81
2023/06/08 15:46:20;;;;;;;1.30;1.10;;;;;;;15.16;42.57;100947.16;10325471;28;20051;-83
2023/06/08 15:51:29;;;;;;;1.73;1.15;;;;;;;15.20;42.86;100953.72;10325068;28;20062;-85
2023/06/08 15:56:31;;;;;;;1.75;1.50;;;;;;;15.20;42.15;100960.06;10302971;28;20055;-89
2023/06/08 16:01:34;;;;;;;4.57;1.45;;;;;;;15.12;42.38;100957.19;10308365;28;20058;-85
2023/06/08 16:06:36;;;;;;;2.58;1.83;;;;;;;15.12;42.55;100941.44;10312006;28;20436;-91
2023/06/08 16:11:38;;;;;;;2.63;1.58;;;;;;;15.25;41.72;100934.25;10309627;28;20039;-88
2023/06/08 16:16:40;;;;;;;3.70;1.42;;;;;;;15.25;40.63;100939.78;10315370;28;20413;-81
2023/06/08 16:21:46;;;;;;;4.35;1.40;;;;;;;15.25;40.25;100926.78;10316786;28;20038;-80
2023/06/08 16:26:48;;;;;;;3.13;1.38;;;;;;;15.40;40.40;100920.13;10313257;28;20502;-80
2023/06/08 16:31:51;;;;;;;1.70;1.30;;;;;;;15.59;39.81;100922.84;10311706;28;20054;-81
2023/06/08 16:36:54;;;;;;;2.92;1.42;;;;;;;15.39;40.25;100916.56;10279458;28;20046;-81
2023/06/08 16:41:56;;;;;;;1.85;1.40;;;;;;;15.38;40.29;100920.44;10305231;28;20054;-81
2023/06/08 16:46:58;;;;;;;2.65;1.25;;;;;;;15.32;40.24;100915.34;10324540;28;20414;-81
2023/06/08 16:52:01;;;;;;;2.45;1.10;;;;;;;15.26;40.60;100922.06;10324232;28;20421;-86
2023/06/08 16:57:03;;;;;;;2.10;1.30;;;;;;;15.25;40.43;100923.19;10284651;28;20058;-81
2023/06/08 17:02:06;;;;;;;1.05;0.90;;;;;;;15.15;41.30;100926.16;10305851;28;20055;-81
2023/06/08 17:07:08;;;;;;;3.33;1.10;;;;;;;15.08;42.25;100924.59;10309255;28;20057;-83
2023/06/08 17:12:11;;;;;;;2.15;1.35;;;;;;;15.07;42.49;100930.44;10292583;28;20429;-80
2023/06/08 17:17:13;;;;;;;1.60;1.15;;;;;;;14.96;42.65;100917.94;10320810;28;20417;-85
2023/06/08 17:22:16;;;;;;;1.90;1.20;;;;;;;14.86;43.75;100927.22;10292660;28;20576;-86
2023/06/08 17:27:18;;;;;;;2.67;1.40;;;;;;;14.82;44.39;100911.56;10306859;28;20050;-84
2023/06/08 17:32:20;;;;;;;4.47;1.85;;;;;;;14.77;45.24;100913.28;10283758;28;20051;-86
2023/06/08 17:37:23;;;;;;;3.05;1.48;;;;;;;14.62;47.69;100913.56;10319474;28;20082;-85
2023/06/08 17:42:26;;;;;;;1.15;0.93;;;;;;;14.44;48.57;100920.75;10311972;28;20513;-81
2023/06/08 17:47:29;;;;;;;1.45;1.17;;;;;;;14.26;49.27;100923.47;10302554;28;20043;-80
2023/06/08 17:52:31;;;;;;;3.50;1.35;;;;;;;14.14;50.70;100921.97;10316474;28;20038;-83
2023/06/08 17:57:34;;;;;;;3.10;1.25;;;;;;;14.06;52.57;100914.38;10302931;28;20049;-83
2023/06/08 18:02:36;;;;;;;2.00;1.20;;;;;;;13.92;55.73;100918.19;10315720;28;20058;-85
2023/06/08 18:07:38;;;;;;;2.55;1.30;;;;;;;13.67;57.21;100922.88;10296031;28;20043;-94
2023/06/08 18:12:41;;;;;;;1.75;1.05;;;;;;;13.50;57.90;100928.06;10320063;28;20031;-81
2023/06/08 18:17:43;;;;;;;3.80;1.00;;;;;;;13.31;59.45;100935.44;10299545;28;20089;-80
2023/06/08 18:22:45;;;;;;;5.53;1.10;;;;;;;13.10;60.35;100929.28;10295063;28;20045;-79
2023/06/08 18:27:48;;;;;;;5.00;1.30;;;;;;;12.96;60.99;100921.72;10320857;28;20034;-89
2023/06/08 18:32:50;;;;;;;3.85;1.30;;;;;;;12.80;63.53;100909.19;10311051;28;20035;-83
2023/06/08 18:37:52;;;;;;;3.88;1.30;;;;;;;12.55;66.31;100924.00;10327363;28;20143;-81
2023/06/08 18:42:55;;;;;;;3.60;1.35;;;;;;;12.34;67.49;100928.84;10323878;28;20430;-91
2023/06/08 18:47:57;;;;;;;2.00;1.55;;;;;;;12.17;69.25;100944.91;10284799;28;20065;-87
2023/06/08 18:52:59;;;;;;;2.42;1.33;;;;;;;12.06;70.94;100935.88;10326599;28;20042;-84
2023/06/08 18:58:01;;;;;;;2.60;1.50;;;;;;;11.96;72.95;100946.09;10326668;28;20058;-82
2023/06/08 19:03:04;;;;;;;4.47;2.10;;;;;;;11.92;74.09;100936.78;10318706;28;20046;-81
2023/06/08 19:08:06;;;;;;;1.73;1.27;;;;;;;11.89;76.63;100942.84;10291874;28;20050;-82
2023/06/08 19:13:08;;;;;;;2.40;1.40;;;;;;;11.71;77.75;100931.34;10326828;28;20070;-84
2023/06/08 19:18:11;;;;;;;6.75;1.77;;;;;;;11.61;78.93;100972.63;10324207;28;20046;-82
2023/06/08 19:23:13;;;;;;;1.75;1.40;;;;;;;11.46;80.46;100926.78;10308306;28;20043;-78
2023/06/08 19:28:15;;;;;;;4.68;1.52;;;;;;;11.34;81.66;100914.47;10321428;28;20382;-79
2023/06/08 19:33:18;;;;;;;2.30;1.45;;;;;;;11.38;82.49;100962.25;10300020;28;20051;-80
2023/06/08 19:38:20;;;;;;;2.25;1.52;;;;;;;11.28;83.30;100981.50;10310599;28;20058;-81
2023/06/08 19:43:23;;;;;;;2.55;1.67;;;;;;;11.17;84.92;100978.78;10311034;28;20062;-81
2023/06/08 19:48:25;;;;;;;1.98;1.20;;;;;;;10.93;83.73;100944.72;10324267;28;20046;-81
2023/06/08 19:53:28;;;;;;;2.33;1.23;;;;;;;10.67;83.17;100965.88;10327473;28;20130;-84
2023/06/08 19:58:30;;;;;;;2.65;1.13;;;;;;;10.41;83.07;100973.28;10296034;28;20038;-79
2023/06/08 20:03:33;;;;;;;2.05;1.00;;;;;;;10.23;84.08;100991.03;10298385;28;20046;-82
2023/06/08 20:08:36;;;;;;;3.58;1.30;;;;;;;10.20;84.41;101007.19;10306751;28;20055;-80
2023/06/08 20:13:38;;;;;;;2.42;1.50;;;;;;;10.19;85.50;101019.25;10282984;28;20054;-89
2023/06/08 20:18:40;;;;;;;1.85;1.45;;;;;;;10.12;86.31;100992.09;10289094;28;20043;-79
2023/06/08 20:23:43;;;;;;;1.98;1.40;;;;;;;10.11;86.42;100995.94;10298323;28;20050;-79
2023/06/08 20:28:45;;;;;;;3.47;1.50;;;;;;;10.17;86.17;100985.81;10297999;28;20054;-80
2023/06/08 20:33:47;;;;;;;2.45;1.58;;;;;;;10.12;85.07;100981.13;10286270;28;20039;-80
2023/06/08 20:38:49;;;;;;;1.92;1.30;;;;;;;10.07;85.32;100989.34;10307823;28;20043;-78
2023/06/08 20:43:54;;;;;;;2.92;1.40;;;;;;;10.07;85.65;101004.97;10324834;28;20047;-77
2023/06/08 20:48:58;;;;;;;3.47;1.60;;;;;;;10.18;86.17;100984.69;10275307;28;20058;-78
2023/06/08 20:54:00;;;;;;;1.58;1.30;;;;;;;10.13;85.48;100990.19;10324912;28;20059;-78
2023/06/08 20:59:03;;;;;;;2.50;1.52;;;;;;;10.02;86.13;100986.56;10324783;28;20053;-81
2023/06/08 21:04:06;;;;;;;1.55;1.20;;;;;;;9.97;86.26;100990.13;10287258;28;20150;-83
2023/06/08 21:09:08;;;;;;;1.73;1.30;;;;;;;10.03;85.75;100988.22;10313106;28;20066;-79
2023/06/08 21:14:10;;;;;;;3.28;1.67;;;;;;;10.00;85.37;100998.91;10312756;28;20038;-81
2023/06/08 21:19:13;;;;;;;3.78;1.45;;;;;;;9.91;86.08;101004.91;10296270;28;20047;-82
2023/06/08 21:24:15;;;;;;;3.17;1.58;;;;;;;9.88;86.74;101005.44;10306056;28;20058;-80
2023/06/08 21:29:17;;;;;;;3.95;1.27;;;;;;;9.88;86.66;100997.19;10313458;28;20043;-78
2023/06/08 21:34:20;;;;;;;1.33;1.20;;;;;;;9.79;86.57;101011.69;10298944;28;20039;-84
2023/06/08 21:39:22;;;;;;;2.28;1.70;;;;;;;9.67;86.73;101018.22;10301628;28;20043;-80
2023/06/08 21:44:25;;;;;;;1.45;1.35;;;;;;;9.58;87.13;101022.56;10322546;28;20050;-81
2023/06/08 21:49:27;;;;;;;1.65;1.50;;;;;;;9.47;87.91;101023.56;10297256;28;20047;-79
2023/06/08 21:54:29;;;;;;;1.83;1.30;;;;;;;9.45;88.06;101020.28;10311087;28;21556;-77
2023/06/08 21:59:31;;;;;;;1.92;1.20;;;;;;;9.42;87.89;101028.22;10323786;28;20046;-78
2023/06/08 22:04:34;;;;;;;2.13;1.50;;;;;;;9.30;87.97;101028.38;10321697;28;20667;-78
2023/06/08 22:09:36;;;;;;;2.60;1.52;;;;;;;9.26;87.45;101030.84;10317923;28;20052;-77
2023/06/08 22:14:39;;;;;;;3.28;1.48;;;;;;;9.20;87.84;101040.13;10299337;28;20506;-78
2023/06/08 22:19:46;;;;;;;1.77;1.50;;;;;;;9.17;87.71;101048.81;10283412;28;20050;-78
2023/06/08 22:24:48;;;;;;;2.15;1.60;;;;;;;9.07;88.88;101048.75;10290085;28;20533;-78
2023/06/08 22:29:52;;;;;;;2.72;1.70;;;;;;;9.01;88.07;101052.53;10298147;28;20046;-78
2023/06/08 22:34:55;;;;;;;2.55;1.50;;;;;;;8.98;88.14;101047.56;10279322;28;20035;-77
2023/06/08 22:39:58;;;;;;;1.80;1.55;;;;;;;8.91;87.88;101050.53;10312915;28;20047;-77
2023/06/08 22:45:06;;;;;;;1.45;1.30;;;;;;;8.90;88.09;101045.31;10301252;28;20067;-77
2023/06/08 22:50:09;;;;;;;2.88;1.83;;;;;;;8.92;88.82;101060.41;10300848;28;20054;-77
2023/06/08 22:55:12;;;;;;;2.10;1.65;;;;;;;8.87;88.38;101054.88;10314320;28;20063;-80
2023/06/08 23:00:14;;;;;;;2.70;1.45;;;;;;;8.82;88.08;101064.94;10305172;28;20059;-80
2023/06/08 23:05:17;;;;;;;2.90;1.83;;;;;;;8.77;88.55;101069.28;10318357;28;20054;-80
2023/06/08 23:10:22;;;;;;;1.45;1.27;;;;;;;8.65;88.68;101067.78;10304039;28;20043;-81
2023/06/08 23:15:28;;;;;;;1.95;1.10;;;;;;;8.57;88.45;101074.56;10303704;28;20050;-81
2023/06/08 23:20:30;;;;;;;1.95;1.40;;;;;;;8.54;88.40;101064.13;10302163;28;20054;-82